createdAt,value
2018-03-02T00:00:36.895Z,0.00
2018-03-02T00:02:08.715Z,0.00
2018-03-02T00:03:40.532Z,0.00
2018-03-02T00:05:12.351Z,0.00
2018-03-02T00:06:44.168Z,0.00
2018-03-02T00:08:15.986Z,0.00
2018-03-02T00:09:47.805Z,0.00
2018-03-02T00:11:19.623Z,0.00
2018-03-02T00:12:51.441Z,0.00
2018-03-02T00:14:23.259Z,0.00
2018-03-02T00:15:55.077Z,0.00
2018-03-02T00:17:26.994Z,0.00
2018-03-02T00:18:58.712Z,0.00
2018-03-02T00:20:30.531Z,0.00
2018-03-02T00:22:02.349Z,0.00
2018-03-02T00:23:34.167Z,0.00
2018-03-02T00:25:05.985Z,0.00
2018-03-02T00:26:37.806Z,0.00
2018-03-02T00:28:09.622Z,0.00
2018-03-02T00:29:41.690Z,0.00
2018-03-02T00:31:13.258Z,0.00
2018-03-02T00:32:45.074Z,0.00
2018-03-02T00:34:16.899Z,0.00
2018-03-02T00:35:48.810Z,0.00
2018-03-02T00:37:20.528Z,0.00
2018-03-02T00:38:52.347Z,0.00
2018-03-02T00:40:24.165Z,0.00
2018-03-02T00:41:56.084Z,0.00
2018-03-02T00:43:27.802Z,0.00
2018-03-02T00:44:59.623Z,0.00
2018-03-02T00:46:31.438Z,0.00
2018-03-02T00:48:03.257Z,0.00
2018-03-02T00:49:35.074Z,0.00
2018-03-02T00:51:06.892Z,0.00
2018-03-02T00:52:38.710Z,0.00
2018-03-02T00:54:10.628Z,0.00
2018-03-02T00:55:42.349Z,0.00
2018-03-02T00:57:14.164Z,0.00
2018-03-02T00:58:45.981Z,0.00
2018-03-02T01:00:17.800Z,0.00
2018-03-02T01:01:49.617Z,0.00
2018-03-02T01:03:21.435Z,0.00
2018-03-02T01:04:53.252Z,0.00
2018-03-02T01:06:25.071Z,0.00
2018-03-02T01:07:56.887Z,0.00
2018-03-02T01:09:28.707Z,0.00
2018-03-02T01:11:00.523Z,0.00
2018-03-02T01:12:32.893Z,0.00
2018-03-02T01:14:04.158Z,0.00
2018-03-02T01:15:35.975Z,0.00
2018-03-02T01:17:07.793Z,0.00
2018-03-02T01:18:39.612Z,0.00
2018-03-02T01:20:11.428Z,0.00
2018-03-02T01:21:43.245Z,0.00
2018-03-02T01:23:15.062Z,0.00
2018-03-02T01:24:46.879Z,0.00
2018-03-02T01:26:18.696Z,0.00
2018-03-02T01:27:50.514Z,0.00
2018-03-02T01:29:22.332Z,0.00
2018-03-02T01:30:54.248Z,0.00
2018-03-02T01:32:25.965Z,0.00
2018-03-02T01:33:57.783Z,0.00
2018-03-02T01:35:29.601Z,0.00
2018-03-02T01:37:01.518Z,0.00
2018-03-02T01:38:33.285Z,0.00
2018-03-02T01:40:05.052Z,0.00
2018-03-02T01:41:36.869Z,0.00
2018-03-02T01:43:08.687Z,0.00
2018-03-02T01:44:40.504Z,0.00
2018-03-02T01:46:12.321Z,0.00
2018-03-02T01:47:44.139Z,0.00
2018-03-02T01:49:16.057Z,0.00
2018-03-02T01:50:47.775Z,0.00
2018-03-02T01:52:19.590Z,0.00
2018-03-02T01:53:51.408Z,0.00
2018-03-02T01:55:23.282Z,0.00
2018-03-02T01:56:55.047Z,0.00
2018-03-02T01:58:26.860Z,0.00
2018-03-02T01:59:58.679Z,0.00
2018-03-02T02:01:30.497Z,0.00
2018-03-02T02:03:02.315Z,0.00
2018-03-02T02:04:34.140Z,0.00
2018-03-02T02:06:05.949Z,0.00
2018-03-02T02:07:37.967Z,0.00
2018-03-02T02:09:09.585Z,0.00
2018-03-02T02:10:41.404Z,0.00
2018-03-02T02:12:13.220Z,0.00
2018-03-02T02:13:45.038Z,0.00
2018-03-02T02:15:16.855Z,0.00
2018-03-02T02:16:48.724Z,0.00
2018-03-02T02:18:20.490Z,0.00
2018-03-02T02:19:52.309Z,0.00
2018-03-02T02:21:24.127Z,0.00
2018-03-02T02:22:55.944Z,0.00
2018-03-02T02:24:27.762Z,0.00
2018-03-02T02:25:59.680Z,0.00
2018-03-02T02:27:31.398Z,0.00
2018-03-02T02:29:03.215Z,0.00
2018-03-02T02:30:35.034Z,0.00
2018-03-02T02:32:06.851Z,0.00
2018-03-02T02:33:38.669Z,0.00
2018-03-02T02:35:10.486Z,0.00
2018-03-02T02:36:42.303Z,0.00
2018-03-02T02:38:14.221Z,0.00
2018-03-02T02:39:45.939Z,0.00
2018-03-02T02:41:17.758Z,0.00
2018-03-02T02:42:49.576Z,0.00
2018-03-02T02:44:21.497Z,0.00
2018-03-02T02:45:53.210Z,0.00
2018-03-02T02:47:25.027Z,0.00
2018-03-02T02:48:56.849Z,0.00
2018-03-02T02:50:28.664Z,0.00
2018-03-02T02:52:00.482Z,0.00
2018-03-02T02:53:32.304Z,0.00
2018-03-02T02:55:04.119Z,0.00
2018-03-02T02:56:35.935Z,0.00
2018-03-02T02:58:07.764Z,0.00
2018-03-02T02:59:39.572Z,0.00
2018-03-02T03:01:11.389Z,0.00
2018-03-02T03:02:43.306Z,0.00
2018-03-02T03:04:15.029Z,0.00
2018-03-02T03:05:46.842Z,0.00
2018-03-02T03:07:18.660Z,0.00
2018-03-02T03:08:50.577Z,0.00
2018-03-02T03:10:22.295Z,0.00
2018-03-02T03:11:54.114Z,0.00
2018-03-02T03:13:25.930Z,0.00
2018-03-02T03:14:57.898Z,0.00
2018-03-02T03:16:29.566Z,0.00
2018-03-02T03:18:01.383Z,0.00
2018-03-02T03:19:33.201Z,0.00
2018-03-02T03:21:05.218Z,0.00
2018-03-02T03:22:36.836Z,0.00
2018-03-02T03:24:08.654Z,0.00
2018-03-02T03:25:40.471Z,0.00
2018-03-02T03:27:12.288Z,0.00
2018-03-02T03:28:44.106Z,0.00
2018-03-02T03:30:15.928Z,0.00
2018-03-02T03:31:47.755Z,0.00
2018-03-02T03:33:19.563Z,0.00
2018-03-02T03:34:51.376Z,0.00
2018-03-02T03:36:23.192Z,0.00
2018-03-02T03:37:55.012Z,0.00
2018-03-02T03:39:26.927Z,0.00
2018-03-02T03:40:58.645Z,0.00
2018-03-02T03:42:30.462Z,0.00
2018-03-02T03:44:02.279Z,0.00
2018-03-02T03:45:34.095Z,0.00
2018-03-02T03:47:05.912Z,0.00
2018-03-02T03:48:37.734Z,0.00
2018-03-02T03:50:09.547Z,0.00
2018-03-02T03:51:41.363Z,0.00
2018-03-02T03:53:13.186Z,0.00
2018-03-02T03:54:44.999Z,0.00
2018-03-02T03:56:16.814Z,0.00
2018-03-02T03:57:48.734Z,0.00
2018-03-02T03:59:20.462Z,0.00
2018-03-02T04:00:52.265Z,0.00
2018-03-02T04:02:24.082Z,0.00
2018-03-02T04:03:55.898Z,0.00
2018-03-02T04:05:27.716Z,0.00
2018-03-02T04:06:59.533Z,0.00
2018-03-02T04:08:31.350Z,0.00
2018-03-02T04:10:03.273Z,0.00
2018-03-02T04:11:34.984Z,0.00
2018-03-02T04:13:06.800Z,0.00
2018-03-02T04:14:38.618Z,0.00
2018-03-02T04:16:10.688Z,0.00
2018-03-02T04:17:42.252Z,0.00
2018-03-02T04:19:14.069Z,0.00
2018-03-02T04:20:45.886Z,0.00
2018-03-02T04:22:17.703Z,0.00
2018-03-02T04:23:49.519Z,0.00
2018-03-02T04:25:21.337Z,0.00
2018-03-02T04:26:53.153Z,0.00
2018-03-02T04:28:24.970Z,0.00
2018-03-02T04:29:56.786Z,0.00
2018-03-02T04:31:28.603Z,0.00
2018-03-02T04:33:00.420Z,0.00
2018-03-02T04:34:32.337Z,0.00
2018-03-02T04:36:04.055Z,0.00
2018-03-02T04:37:35.882Z,0.00
2018-03-02T04:39:07.687Z,0.00
2018-03-02T04:40:39.606Z,0.00
2018-03-02T04:42:11.320Z,0.00
2018-03-02T04:43:43.138Z,0.00
2018-03-02T04:45:14.962Z,0.00
2018-03-02T04:46:46.770Z,0.00
2018-03-02T04:48:18.588Z,0.00
2018-03-02T04:49:50.404Z,0.00
2018-03-02T04:51:22.222Z,0.00
2018-03-02T04:52:54.439Z,0.00
2018-03-02T04:54:25.864Z,0.00
2018-03-02T04:55:57.673Z,0.00
2018-03-02T04:57:29.492Z,0.00
2018-03-02T04:59:01.306Z,0.00
2018-03-02T05:00:33.127Z,0.00
2018-03-02T05:02:04.940Z,0.00
2018-03-02T05:03:36.765Z,0.00
2018-03-02T05:05:08.673Z,0.00
2018-03-02T05:06:40.389Z,0.00
2018-03-02T05:08:12.206Z,0.00
2018-03-02T05:09:44.023Z,0.00
2018-03-02T05:11:16.041Z,0.00
2018-03-02T05:12:47.657Z,0.00
2018-03-02T05:14:19.474Z,0.00
2018-03-02T05:15:51.290Z,0.00
2018-03-02T05:17:23.107Z,0.00
2018-03-02T05:18:54.924Z,0.00
2018-03-02T05:20:26.780Z,0.00
2018-03-02T05:21:58.557Z,0.00
2018-03-02T05:23:30.628Z,0.00
2018-03-02T05:25:02.190Z,0.00
2018-03-02T05:26:34.007Z,0.00
2018-03-02T05:28:05.824Z,0.00
2018-03-02T05:29:37.740Z,0.00
2018-03-02T05:31:09.457Z,0.00
2018-03-02T05:32:41.277Z,0.00
2018-03-02T05:34:13.092Z,0.00
2018-03-02T05:35:44.907Z,0.00
2018-03-02T05:37:16.723Z,0.00
2018-03-02T05:38:48.541Z,0.00
2018-03-02T05:40:20.357Z,0.00
2018-03-02T05:41:52.273Z,0.00
2018-03-02T05:43:23.993Z,0.00
2018-03-02T05:44:55.812Z,0.00
2018-03-02T05:46:27.624Z,0.00
2018-03-02T05:47:59.692Z,0.00
2018-03-02T05:49:31.258Z,0.00
2018-03-02T05:51:03.074Z,0.00
2018-03-02T05:52:34.895Z,0.00
2018-03-02T05:54:06.958Z,0.00
2018-03-02T05:55:38.526Z,0.00
2018-03-02T05:57:10.340Z,0.00
2018-03-02T05:58:42.157Z,0.00
2018-03-02T06:00:13.974Z,0.00
2018-03-02T06:01:45.791Z,0.00
2018-03-02T06:03:17.607Z,0.00
2018-03-02T06:04:49.423Z,0.00
2018-03-02T06:06:21.340Z,0.00
2018-03-02T06:07:53.058Z,0.00
2018-03-02T06:09:24.873Z,0.00
2018-03-02T06:10:56.689Z,0.00
2018-03-02T06:12:28.607Z,0.00
2018-03-02T06:14:00.322Z,0.00
2018-03-02T06:15:32.138Z,0.00
2018-03-02T06:17:03.956Z,0.00
2018-03-02T06:18:35.774Z,0.00
2018-03-02T06:20:07.589Z,0.00
2018-03-02T06:21:39.404Z,0.00
2018-03-02T06:23:11.221Z,0.00
2018-03-02T06:24:43.439Z,0.00
2018-03-02T06:26:14.854Z,0.00
2018-03-02T06:27:46.671Z,0.00
2018-03-02T06:29:18.488Z,0.00
2018-03-02T06:30:50.304Z,0.00
2018-03-02T06:32:22.120Z,0.00
2018-03-02T06:33:53.937Z,0.00
2018-03-02T06:35:25.754Z,0.00
2018-03-02T06:36:57.570Z,0.00
2018-03-02T06:38:29.386Z,0.00
2018-03-02T06:40:01.202Z,0.00
2018-03-02T06:41:33.019Z,0.00
2018-03-02T06:43:04.936Z,0.00
2018-03-02T06:44:36.652Z,0.00
2018-03-02T06:46:08.469Z,0.00
2018-03-02T06:47:40.285Z,0.00
2018-03-02T06:49:12.203Z,0.00
2018-03-02T06:50:43.922Z,0.00
2018-03-02T06:52:15.735Z,0.00
2018-03-02T06:53:47.552Z,0.00
2018-03-02T06:55:19.619Z,0.00
2018-03-02T06:56:51.185Z,0.00
2018-03-02T06:58:23.001Z,0.00
2018-03-02T06:59:54.818Z,0.00
2018-03-02T07:01:26.739Z,0.00
2018-03-02T07:02:58.455Z,0.00
2018-03-02T07:04:30.273Z,0.00
2018-03-02T07:06:02.088Z,0.00
2018-03-02T07:07:33.901Z,0.00
2018-03-02T07:09:05.717Z,0.00
2018-03-02T07:10:37.534Z,0.00
2018-03-02T07:12:09.351Z,0.00
2018-03-02T07:13:41.267Z,0.00
2018-03-02T07:15:12.984Z,0.00
2018-03-02T07:16:44.800Z,0.00
2018-03-02T07:18:16.617Z,0.00
2018-03-02T07:19:48.533Z,0.00
2018-03-02T07:21:20.254Z,0.00
2018-03-02T07:22:52.097Z,0.00
2018-03-02T07:24:23.882Z,0.00
2018-03-02T07:25:55.699Z,0.00
2018-03-02T07:27:27.516Z,0.00
2018-03-02T07:28:59.332Z,0.00
2018-03-02T07:30:31.149Z,0.00
2018-03-02T07:32:02.965Z,0.00
2018-03-02T07:33:34.782Z,0.00
2018-03-02T07:35:06.598Z,0.00
2018-03-02T07:36:38.415Z,0.00
2018-03-02T07:38:10.332Z,0.00
2018-03-02T07:39:42.047Z,0.00
2018-03-02T07:41:13.863Z,0.00
2018-03-02T07:42:45.681Z,0.00
2018-03-02T07:44:17.693Z,0.00
2018-03-02T07:45:49.313Z,0.00
2018-03-02T07:47:21.129Z,0.00
2018-03-02T07:48:52.946Z,0.00
2018-03-02T07:50:24.762Z,0.00
2018-03-02T07:51:56.578Z,0.00
2018-03-02T07:53:28.394Z,0.00
2018-03-02T07:55:00.213Z,0.00
2018-03-02T07:56:32.128Z,0.00
2018-03-02T07:58:03.843Z,0.00
2018-03-02T07:59:35.667Z,0.00
2018-03-02T08:01:07.477Z,0.00
2018-03-02T08:02:39.294Z,0.00
2018-03-02T08:04:11.109Z,0.00
2018-03-02T08:05:42.928Z,0.00
2018-03-02T08:07:14.742Z,0.00
2018-03-02T08:08:46.558Z,0.00
2018-03-02T08:10:18.374Z,0.00
2018-03-02T08:11:50.190Z,0.00
2018-03-02T08:13:22.019Z,0.00
2018-03-02T08:14:53.923Z,0.00
2018-03-02T08:16:25.639Z,0.00
2018-03-02T08:17:57.459Z,0.00
2018-03-02T08:19:29.272Z,0.00
2018-03-02T08:21:01.088Z,0.00
2018-03-02T08:22:32.904Z,0.00
2018-03-02T08:24:04.722Z,0.00
2018-03-02T08:25:36.536Z,0.00
2018-03-02T08:27:08.352Z,0.00
2018-03-02T08:28:40.177Z,0.00
2018-03-02T08:30:11.986Z,0.00
2018-03-02T08:31:43.802Z,0.00
2018-03-02T08:33:15.717Z,0.00
2018-03-02T08:34:47.434Z,0.00
2018-03-02T08:36:19.252Z,0.00
2018-03-02T08:37:51.066Z,0.00
2018-03-02T08:39:22.883Z,0.00
2018-03-02T08:40:54.699Z,0.00
2018-03-02T08:42:26.516Z,0.00
2018-03-02T08:43:58.354Z,0.00
2018-03-02T08:45:30.259Z,0.00
2018-03-02T08:47:01.965Z,0.00
2018-03-02T08:48:33.781Z,0.00
2018-03-02T08:50:05.598Z,0.00
2018-03-02T08:51:37.514Z,0.00
2018-03-02T08:53:09.230Z,0.00
2018-03-02T08:54:41.046Z,5.63
2018-03-02T08:56:12.862Z,5.63
2018-03-02T08:57:44.680Z,5.63
2018-03-02T08:59:16.498Z,5.63
2018-03-02T09:00:48.311Z,11.25
2018-03-02T09:02:20.126Z,11.25
2018-03-02T09:03:51.944Z,16.88
2018-03-02T09:05:23.759Z,16.88
2018-03-02T09:06:55.577Z,22.50
2018-03-02T09:08:27.392Z,28.13
2018-03-02T09:09:59.308Z,28.13
2018-03-02T09:11:31.026Z,33.75
2018-03-02T09:13:02.841Z,39.38
2018-03-02T09:14:34.659Z,45.00
2018-03-02T09:16:06.575Z,56.25
2018-03-02T09:17:38.291Z,61.88
2018-03-02T09:19:10.107Z,67.50
2018-03-02T09:20:41.923Z,73.13
2018-03-02T09:22:13.741Z,84.38
2018-03-02T09:23:45.567Z,84.38
2018-03-02T09:25:17.374Z,95.63
2018-03-02T09:26:49.190Z,112.50
2018-03-02T09:28:21.715Z,129.38
2018-03-02T09:29:52.824Z,146.25
2018-03-02T09:31:24.642Z,157.50
2018-03-02T09:32:56.458Z,174.38
2018-03-02T09:34:28.275Z,191.25
2018-03-02T09:36:00.093Z,213.75
2018-03-02T09:37:31.922Z,236.25
2018-03-02T09:39:03.931Z,247.50
2018-03-02T09:40:35.545Z,258.75
2018-03-02T09:43:39.382Z,275.63
2018-03-02T09:45:11.000Z,286.88
2018-03-02T09:46:43.223Z,286.88
2018-03-02T09:48:14.648Z,292.50
2018-03-02T09:49:46.454Z,298.13
2018-03-02T09:51:18.274Z,303.75
2018-03-02T09:52:50.092Z,326.25
2018-03-02T09:54:21.911Z,331.88
2018-03-02T09:55:53.950Z,331.88
2018-03-02T09:57:25.557Z,331.88
2018-03-02T09:58:57.621Z,320.63
2018-03-02T10:02:01.010Z,303.75
2018-03-02T10:03:32.845Z,315.00
2018-03-02T10:05:04.749Z,309.38
2018-03-02T10:06:36.468Z,303.75
2018-03-02T10:08:08.815Z,292.50
2018-03-02T10:09:40.106Z,281.25
2018-03-02T10:11:12.132Z,275.63
2018-03-02T10:12:44.345Z,264.38
2018-03-02T10:14:15.565Z,258.75
2018-03-02T10:15:47.385Z,258.75
2018-03-02T10:17:19.228Z,264.38
2018-03-02T10:18:51.024Z,281.25
2018-03-02T10:20:22.846Z,298.13
2018-03-02T10:21:54.663Z,315.00
2018-03-02T10:23:27.306Z,315.00
2018-03-02T10:24:58.301Z,331.88
2018-03-02T10:26:30.120Z,331.88
2018-03-02T10:29:33.968Z,376.88
2018-03-02T10:31:05.579Z,393.75
2018-03-02T10:32:38.194Z,585.00
2018-03-02T10:34:09.217Z,472.50
2018-03-02T10:35:42.231Z,421.88
2018-03-02T10:37:13.163Z,511.88
2018-03-02T10:41:48.716Z,703.13
2018-03-02T10:46:24.307Z,753.75
2018-03-02T10:47:55.904Z,720.00
2018-03-02T10:49:27.628Z,776.25
2018-03-02T10:50:59.236Z,770.63
2018-03-02T10:52:31.101Z,804.38
2018-03-02T10:54:02.879Z,781.88
2018-03-02T10:55:35.005Z,849.38
2018-03-02T10:57:06.526Z,860.63
2018-03-02T10:58:38.380Z,866.25
2018-03-02T11:00:10.269Z,916.88
2018-03-02T11:01:41.991Z,956.25
2018-03-02T11:04:45.677Z,950.63
2018-03-02T11:06:17.460Z,961.88
2018-03-02T11:07:49.284Z,984.38
2018-03-02T11:09:21.111Z,978.75
2018-03-02T11:12:24.756Z,1068.75
2018-03-02T11:13:57.037Z,1018.13
2018-03-02T11:15:28.615Z,1046.25
2018-03-02T11:17:00.228Z,1068.75
2018-03-02T11:20:03.978Z,1096.88
2018-03-02T11:21:35.951Z,1175.63
2018-03-02T11:23:07.783Z,1125.00
2018-03-02T11:24:39.352Z,1141.88
2018-03-02T11:26:11.501Z,1153.13
2018-03-02T11:27:43.002Z,1260.00
2018-03-02T11:29:15.035Z,1282.50
2018-03-02T11:30:46.772Z,1237.50
2018-03-02T11:32:19.188Z,1344.38
2018-03-02T11:33:50.298Z,1265.63
2018-03-02T11:35:22.435Z,1271.25
2018-03-02T11:36:53.948Z,1456.88
2018-03-02T11:39:57.706Z,1479.38
2018-03-02T11:41:29.452Z,1507.50
2018-03-02T11:43:01.774Z,1316.25
2018-03-02T11:44:33.106Z,1575.00
2018-03-02T11:47:37.136Z,1676.25
2018-03-02T11:50:40.377Z,1721.25
2018-03-02T11:52:12.465Z,1738.13
2018-03-02T11:53:44.077Z,1642.50
2018-03-02T11:55:15.857Z,1524.38
2018-03-02T11:58:19.503Z,1563.75
2018-03-02T11:59:51.499Z,1468.13
2018-03-02T12:01:23.157Z,1440.00
2018-03-02T12:02:54.984Z,1575.00
2018-03-02T12:04:26.808Z,1535.63
2018-03-02T12:07:30.456Z,1383.75
2018-03-02T12:09:02.297Z,1591.88
2018-03-02T12:10:34.149Z,1755.00
2018-03-02T12:12:06.959Z,1873.13
2018-03-02T12:15:09.908Z,1968.75
2018-03-02T12:16:41.745Z,1968.75
2018-03-02T12:18:13.234Z,1968.75
2018-03-02T12:19:45.058Z,1980.00
2018-03-02T12:21:17.188Z,2025.00
2018-03-02T12:22:48.758Z,1974.38
2018-03-02T12:24:20.536Z,2002.50
2018-03-02T12:25:52.364Z,2041.88
2018-03-02T12:27:24.188Z,2025.00
2018-03-02T12:28:56.016Z,2103.75
2018-03-02T12:30:27.842Z,2120.63
2018-03-02T12:31:59.670Z,2143.13
2018-03-02T12:33:31.900Z,2210.63
2018-03-02T12:35:03.323Z,2019.38
2018-03-02T12:36:35.185Z,2070.00
2018-03-02T12:38:07.014Z,2070.00
2018-03-02T12:39:38.860Z,2143.13
2018-03-02T12:42:42.672Z,2407.50
2018-03-02T12:44:14.288Z,2317.50
2018-03-02T12:45:46.315Z,2340.00
2018-03-02T12:47:17.948Z,2317.50
2018-03-02T12:48:49.996Z,2356.88
2018-03-02T12:51:53.782Z,2385.00
2018-03-02T12:53:25.278Z,2424.38
2018-03-02T12:54:57.236Z,2430.00
2018-03-02T12:56:28.915Z,2446.88
2018-03-02T12:59:32.576Z,2508.75
2018-03-02T13:01:04.604Z,2475.00
2018-03-02T13:02:36.233Z,2542.50
2018-03-02T13:04:08.060Z,2587.50
2018-03-02T13:05:39.890Z,2345.63
2018-03-02T13:07:11.718Z,2655.00
2018-03-02T13:08:43.644Z,2632.50
2018-03-02T13:11:47.671Z,2058.75
2018-03-02T13:13:19.048Z,2716.88
2018-03-02T13:14:51.029Z,973.13
2018-03-02T13:16:22.709Z,1068.75
2018-03-02T13:17:54.623Z,2683.13
2018-03-02T13:19:26.350Z,2795.63
2018-03-02T13:20:58.196Z,2373.75
2018-03-02T13:22:30.020Z,2863.13
2018-03-02T13:24:01.950Z,2025.00
2018-03-02T13:25:33.692Z,1119.38
2018-03-02T13:27:05.494Z,708.75
2018-03-02T13:30:09.910Z,753.75
2018-03-02T13:31:41.551Z,3166.88
2018-03-02T13:33:12.822Z,3088.13
2018-03-02T13:34:44.632Z,3121.88
2018-03-02T13:36:16.457Z,2986.88
2018-03-02T13:37:48.285Z,2925.00
2018-03-02T13:39:20.113Z,3262.50
2018-03-02T13:40:51.940Z,2953.13
2018-03-02T13:42:23.769Z,815.63
2018-03-02T13:43:55.606Z,922.50
2018-03-02T13:45:27.453Z,3240.00
2018-03-02T13:46:59.455Z,3138.75
2018-03-02T13:48:31.236Z,2930.63
2018-03-02T13:50:02.915Z,3127.50
2018-03-02T13:51:34.735Z,3279.38
2018-03-02T13:54:38.441Z,956.25
2018-03-02T13:56:10.423Z,894.38
2018-03-02T13:57:42.051Z,2908.13
2018-03-02T13:59:13.933Z,3487.50
2018-03-02T14:00:45.766Z,3538.13
2018-03-02T14:02:17.640Z,2480.63
2018-03-02T14:05:21.189Z,1018.13
2018-03-02T14:06:53.456Z,1091.25
2018-03-02T14:08:24.847Z,1693.13
2018-03-02T14:09:56.675Z,1108.13
2018-03-02T14:11:28.503Z,2823.75
2018-03-02T14:13:00.329Z,3183.75
2018-03-02T14:14:32.157Z,1181.25
2018-03-02T14:16:04.732Z,1186.88
2018-03-02T14:17:35.812Z,1743.75
2018-03-02T14:20:39.466Z,2210.63
2018-03-02T14:23:43.122Z,984.38
2018-03-02T14:25:15.032Z,1023.75
2018-03-02T14:26:47.181Z,3324.38
2018-03-02T14:28:18.738Z,2795.63
2018-03-02T14:29:50.437Z,3656.25
2018-03-02T14:31:22.483Z,3628.13
2018-03-02T14:32:54.085Z,3459.38
2018-03-02T14:34:25.925Z,3330.00
2018-03-02T14:35:57.739Z,3538.13
2018-03-02T14:37:29.771Z,3273.75
2018-03-02T14:39:01.398Z,2542.50
2018-03-02T14:40:33.431Z,2019.38
2018-03-02T14:42:05.336Z,3819.38
2018-03-02T14:43:36.885Z,3639.38
2018-03-02T14:45:08.867Z,3858.75
2018-03-02T14:46:40.571Z,3853.13
2018-03-02T14:48:12.426Z,1760.63
2018-03-02T14:51:16.036Z,922.50
2018-03-02T14:52:47.866Z,939.38
2018-03-02T14:54:19.695Z,1220.63
2018-03-02T14:55:52.303Z,3757.50
2018-03-02T14:58:55.382Z,3740.63
2018-03-02T15:00:27.579Z,3526.88
2018-03-02T15:01:58.839Z,1305.00
2018-03-02T15:03:30.664Z,838.13
2018-03-02T15:05:02.595Z,765.00
2018-03-02T15:06:34.346Z,753.75
2018-03-02T15:08:06.149Z,793.13
2018-03-02T15:09:37.980Z,1046.25
2018-03-02T15:11:09.816Z,3639.38
2018-03-02T15:14:13.463Z,3841.88
2018-03-02T15:15:45.287Z,3915.00
2018-03-02T15:17:17.117Z,1288.13
2018-03-02T15:18:49.516Z,4050.00
2018-03-02T15:20:20.774Z,4055.63
2018-03-02T15:21:52.601Z,4095.00
2018-03-02T15:23:24.530Z,4201.88
2018-03-02T15:24:56.261Z,4269.38
2018-03-02T15:26:28.297Z,4016.25
2018-03-02T15:29:31.752Z,956.25
2018-03-02T15:31:03.797Z,961.88
2018-03-02T15:32:35.415Z,1051.88
2018-03-02T15:34:07.444Z,1968.75
2018-03-02T15:35:39.073Z,3667.50
2018-03-02T15:37:10.901Z,3695.63
2018-03-02T15:38:42.730Z,3836.25
2018-03-02T15:40:14.561Z,3684.38
2018-03-02T15:41:46.491Z,3420.00
2018-03-02T15:43:18.222Z,2593.13
2018-03-02T15:44:50.053Z,3802.50
2018-03-02T15:46:21.889Z,1721.25
2018-03-02T15:49:26.077Z,3802.50
2018-03-02T15:50:57.379Z,3847.50
2018-03-02T15:52:29.212Z,3819.38
2018-03-02T15:54:01.044Z,3926.25
2018-03-02T15:55:32.877Z,3886.88
2018-03-02T15:57:04.711Z,4128.75
2018-03-02T15:58:36.545Z,4072.50
2018-03-02T16:00:08.379Z,3774.38
2018-03-02T16:01:40.515Z,1203.75
2018-03-02T16:03:12.048Z,1293.75
2018-03-02T16:04:43.881Z,2936.25
2018-03-02T16:07:47.646Z,3881.25
2018-03-02T16:09:19.380Z,3470.63
2018-03-02T16:10:51.418Z,3864.38
2018-03-02T16:12:23.047Z,3993.75
2018-03-02T16:13:55.133Z,3915.00
2018-03-02T16:15:26.713Z,4072.50
2018-03-02T16:16:58.559Z,2328.75
2018-03-02T16:20:02.518Z,4033.13
2018-03-02T16:21:34.106Z,3931.88
2018-03-02T16:23:06.457Z,3363.75
2018-03-02T16:24:37.926Z,1485.00
2018-03-02T16:26:09.551Z,1490.63
2018-03-02T16:27:41.944Z,1456.88
2018-03-02T16:30:45.050Z,1260.00
2018-03-02T16:32:17.398Z,1231.88
2018-03-02T16:35:20.652Z,1299.38
2018-03-02T16:36:52.552Z,2570.63
2018-03-02T16:38:24.582Z,3650.63
2018-03-02T16:39:56.172Z,1569.38
2018-03-02T16:41:28.058Z,2716.88
2018-03-02T16:42:59.902Z,3172.50
2018-03-02T16:44:32.559Z,3504.38
2018-03-02T16:46:03.964Z,1243.13
2018-03-02T16:47:35.300Z,1068.75
2018-03-02T16:49:07.188Z,961.88
2018-03-02T16:50:39.293Z,1012.50
2018-03-02T16:55:14.322Z,945.00
2018-03-02T16:56:47.674Z,916.88
2018-03-02T16:58:18.950Z,1012.50
2018-03-02T17:01:21.627Z,956.25
2018-03-02T17:02:53.457Z,646.88
2018-03-02T17:04:25.284Z,517.50
2018-03-02T17:05:58.085Z,472.50
2018-03-02T17:07:28.934Z,466.88
2018-03-02T17:09:00.764Z,461.25
2018-03-02T17:10:32.589Z,388.13
2018-03-02T17:13:36.238Z,185.63
2018-03-02T17:15:08.164Z,106.88
2018-03-02T17:16:39.890Z,73.13
2018-03-02T17:18:11.916Z,61.88
2018-03-02T17:19:43.537Z,73.13
2018-03-02T17:22:47.187Z,151.88
2018-03-02T17:24:19.009Z,180.00
2018-03-02T17:25:50.996Z,236.25
2018-03-02T17:27:22.654Z,326.25
2018-03-02T17:30:26.406Z,466.88
2018-03-02T17:31:58.116Z,585.00
2018-03-02T17:33:30.152Z,691.88
2018-03-02T17:35:02.277Z,900.00
2018-03-02T17:36:33.573Z,1288.13
2018-03-02T17:39:37.215Z,1631.25
2018-03-02T17:41:09.333Z,1648.13
2018-03-02T17:42:40.848Z,1935.00
2018-03-02T17:44:12.668Z,1670.63
2018-03-02T17:45:44.490Z,1276.88
2018-03-02T17:47:16.619Z,1091.25
2018-03-02T17:48:48.233Z,990.00
2018-03-02T17:50:19.950Z,939.38
2018-03-02T17:51:51.771Z,905.63
2018-03-02T17:53:23.593Z,894.38
2018-03-02T17:54:55.419Z,871.88
2018-03-02T17:56:27.233Z,776.25
2018-03-02T17:57:59.053Z,680.63
2018-03-02T17:59:30.874Z,568.13
2018-03-02T18:01:02.900Z,506.25
2018-03-02T18:02:34.515Z,472.50
2018-03-02T18:04:06.336Z,438.75
2018-03-02T18:05:38.155Z,399.38
2018-03-02T18:07:10.076Z,388.13
2018-03-02T18:08:41.796Z,371.25
2018-03-02T18:10:13.616Z,331.88
2018-03-02T18:11:45.440Z,264.38
2018-03-02T18:13:17.255Z,230.63
2018-03-02T18:14:49.080Z,213.75
2018-03-02T18:16:20.893Z,208.13
2018-03-02T18:19:24.530Z,230.63
2018-03-02T18:20:56.354Z,230.63
2018-03-02T18:22:28.167Z,241.88
2018-03-02T18:23:59.986Z,258.75
2018-03-02T18:25:31.904Z,247.50
2018-03-02T18:27:03.627Z,202.50
2018-03-02T18:28:35.440Z,174.38
2018-03-02T18:30:07.266Z,174.38
2018-03-02T18:31:39.082Z,202.50
2018-03-02T18:36:14.528Z,219.38
2018-03-02T18:37:46.347Z,174.38
2018-03-02T18:39:18.206Z,146.25
2018-03-02T18:40:49.981Z,135.00
2018-03-02T18:42:21.797Z,129.38
2018-03-02T18:43:53.716Z,123.75
2018-03-02T18:45:25.433Z,112.50
2018-03-02T18:46:57.253Z,106.88
2018-03-02T18:48:29.068Z,106.88
2018-03-02T18:50:00.887Z,112.50
2018-03-02T18:51:32.706Z,123.75
2018-03-02T18:53:04.536Z,135.00
2018-03-02T18:54:36.339Z,151.88
2018-03-02T18:56:08.229Z,163.13
2018-03-02T18:57:39.975Z,185.63
2018-03-02T18:59:11.788Z,213.75
2018-03-02T19:00:43.606Z,225.00
2018-03-02T19:02:15.538Z,258.75
2018-03-02T19:03:47.241Z,298.13
2018-03-02T19:05:19.089Z,326.25
2018-03-02T19:06:50.875Z,331.88
2018-03-02T19:09:54.610Z,320.63
2018-03-02T19:11:26.326Z,315.00
2018-03-02T19:12:58.176Z,320.63
2018-03-02T19:14:29.961Z,315.00
2018-03-02T19:17:33.881Z,151.88
2018-03-02T19:19:05.416Z,112.50
2018-03-02T19:20:37.234Z,163.13
2018-03-02T19:22:09.051Z,123.75
2018-03-02T19:23:40.869Z,118.13
2018-03-02T19:25:12.687Z,129.38
2018-03-02T19:26:44.505Z,168.75
2018-03-02T19:28:16.325Z,157.50
2018-03-02T19:29:48.334Z,213.75
2018-03-02T19:31:19.961Z,258.75
2018-03-02T19:32:51.783Z,230.63
2018-03-02T19:34:23.598Z,236.25
2018-03-02T19:35:55.517Z,219.38
2018-03-02T19:37:27.236Z,196.88
2018-03-02T19:38:59.055Z,174.38
2018-03-02T19:40:30.873Z,196.88
2018-03-02T19:43:34.609Z,168.75
2018-03-02T19:45:06.329Z,146.25
2018-03-02T19:46:38.146Z,106.88
2018-03-02T19:48:09.965Z,78.75
2018-03-02T19:49:41.783Z,84.38
2018-03-02T19:51:13.602Z,95.63
2018-03-02T19:54:17.238Z,129.38
2018-03-02T19:55:49.158Z,135.00
2018-03-02T19:57:20.876Z,151.88
2018-03-02T19:58:52.694Z,151.88
2018-03-02T20:00:24.513Z,146.25
2018-03-02T20:01:56.338Z,135.00
2018-03-02T20:03:28.150Z,135.00
2018-03-02T20:05:00.051Z,135.00
2018-03-02T20:06:31.815Z,135.00
2018-03-02T20:08:03.606Z,95.63
2018-03-02T20:09:35.425Z,73.13
2018-03-02T20:11:07.246Z,84.38
2018-03-02T20:12:39.636Z,90.00
2018-03-02T20:14:10.982Z,73.13
2018-03-02T20:15:42.700Z,73.13
2018-03-02T20:17:14.521Z,84.38
2018-03-02T20:18:46.337Z,84.38
2018-03-02T20:20:18.156Z,95.63
2018-03-02T20:21:49.975Z,95.63
2018-03-02T20:23:21.794Z,78.75
2018-03-02T20:24:53.613Z,67.50
2018-03-02T20:27:57.249Z,67.50
2018-03-02T20:29:29.372Z,78.75
2018-03-02T20:31:00.887Z,78.75
2018-03-02T20:32:32.705Z,95.63
2018-03-02T20:34:04.624Z,112.50
2018-03-02T20:35:36.341Z,95.63
2018-03-02T20:37:08.161Z,73.13
2018-03-02T20:38:39.978Z,67.50
2018-03-02T20:40:11.798Z,45.00
2018-03-02T20:41:43.616Z,45.00
2018-03-02T20:44:47.300Z,50.63
2018-03-02T20:46:19.084Z,33.75
2018-03-02T20:47:50.892Z,28.13
2018-03-02T20:49:22.709Z,33.75